Island Lake Airport
CYIV : rendu visible

Aérodrome :











RETROUVEZ-NOUS SUR...

 
LOGIN :

S'inscrire | Disclaimer

   EN    FR    IT 

 









Légende :    VFR   VFR Marginal   IFR   IFR Intensif   IFR Très Intensif
Visi : 
Plafond : 
>= 8 km
>= 3000ft
5 à 8 km
1000 à 3000 ft
1500m à 5 km
500 à 1000 ft
800 à 1500m
200 à 500 ft
< 800m
< 200 ft
Symboles :   Orages  Brouillard  Fortes neiges  Fortes précipitations  Vent > 20 kt






- Altitude de l'aérodrome : 770 ft
- Code IATA : YIV


CYIV - Island Lake

DERNIER METAR :
  • 162300Z 01003KT 340V060 1SM -SN OVC012 M03/M04 A2973 RMK SN3SC5 SLP088

METARs EXPIRÉS :
  • 162200Z 36002KT 1SM -SN OVC012 M03/M04 A2972 RMK GR3SC5 SLP083
  • 162100Z 11002KT 1SM -SN OVC012 M03/M04 A2971 RMK SN3SC5 SLP079

TAF AMD TAF CYIV
Valide du 16 à 20h jusqu'au 17 à 07h UTC


162047Z 1620/1707 VRB03KT 1SM -SN OVC010
TEMPO 1620/1705 4SM -SN OVC015
BECMG 1700/1702 36010KT
FM170500 36010KT 6SM -SN OVC015
TEMPO 1705/1707 2SM -SN OVC008 RMK NXT FCST BY 170100Z



MET'MAP, la Météo Aéronautique d'un coup d'oeil ! - Copyright ORBIFLY Décembre 2007 - Disclaimer

ORBIFLY MET'MAP TEAM :

Programmation & Développement : Alexandra Zaïnal
Conception & Développement : Baudouin d'Aumeries
Co-Programmation & Développement : Marc-Olivier Méhu
Soutien technique & logistique : Manuel Goepfert

Contact : metmap@orbifly.com




SOURCES & CREDITS :

   NOAA       Earth
Advisory